createdAt,value
2023-05-08T00:03:01.482Z,-3.26
2023-05-08T00:08:23.878Z,-3.26
2023-05-08T00:13:46.387Z,-3.32
2023-05-08T00:19:09.189Z,-3.37
2023-05-08T00:24:32.008Z,-3.33
2023-05-08T00:29:54.261Z,-3.28
2023-05-08T00:35:16.337Z,-3.29
2023-05-08T00:40:38.439Z,-3.38
2023-05-08T00:46:01.884Z,-3.45
2023-05-08T00:51:24.300Z,-3.45
2023-05-08T00:56:46.645Z,-3.56
2023-05-08T01:02:11.162Z,-3.54
2023-05-08T01:07:33.700Z,-3.58
2023-05-08T01:13:22.506Z,-3.66
2023-05-08T01:19:00.273Z,-3.67
2023-05-08T01:24:48.556Z,-3.69
2023-05-08T01:30:52.361Z,-3.69
2023-05-08T01:36:39.416Z,-3.65
2023-05-08T01:42:11.099Z,-3.56
2023-05-08T01:47:38.602Z,-3.55
2023-05-08T01:53:10.638Z,-3.61
2023-05-08T01:58:36.459Z,-3.47
2023-05-08T02:04:00.884Z,-3.36
2023-05-08T02:09:24.712Z,-3.31
2023-05-08T02:14:48.868Z,-3.17
2023-05-08T02:20:15.560Z,-3.11
2023-05-08T02:25:38.301Z,-3.02
2023-05-08T02:31:02.402Z,-2.94
2023-05-08T02:36:26.576Z,-2.86
2023-05-08T02:41:52.273Z,-2.57
2023-05-08T02:47:28.739Z,-2.41
2023-05-08T02:53:00.560Z,-2.09
2023-05-08T02:58:35.733Z,-1.81
2023-05-08T03:04:25.725Z,-1.38
2023-05-08T03:09:51.809Z,-0.96
2023-05-08T03:15:24.978Z,-0.57
2023-05-08T03:20:51.066Z,-0.06
2023-05-08T03:26:20.139Z,0.68
2023-05-08T03:31:45.314Z,2.29
2023-05-08T03:37:08.181Z,3.33
2023-05-08T03:42:32.296Z,6.03
2023-05-08T03:47:55.618Z,6.12
2023-05-08T03:53:18.521Z,7.85
2023-05-08T03:59:01.397Z,7.62
2023-05-08T04:04:37.111Z,9.64
2023-05-08T04:10:27.706Z,11.24
2023-05-08T04:15:53.314Z,14.14
2023-05-08T04:21:20.960Z,14.99
2023-05-08T04:26:46.211Z,13.65
2023-05-08T04:32:10.798Z,16.53
2023-05-08T04:37:33.138Z,15.67
2023-05-08T04:42:58.288Z,16.13
2023-05-08T04:48:23.108Z,18.95
2023-05-08T04:53:48.997Z,20.06
2023-05-08T04:59:12.766Z,19.57
2023-05-08T05:04:37.299Z,17.36
2023-05-08T05:10:01.463Z,19.54
2023-05-08T05:15:26.973Z,19.23
2023-05-08T05:20:49.573Z,19.41
2023-05-08T05:26:12.459Z,19.55
2023-05-08T05:31:34.902Z,19.26
2023-05-08T05:36:59.365Z,20.08
2023-05-08T05:42:22.220Z,18.66
2023-05-08T05:47:54.498Z,18.76
2023-05-08T05:53:19.577Z,20.88
2023-05-08T05:58:45.445Z,19.52
2023-05-08T06:04:08.490Z,20.46
2023-05-08T06:09:30.725Z,21.37
2023-05-08T06:14:53.466Z,19.57
2023-05-08T06:20:15.346Z,20.83
2023-05-08T06:25:37.520Z,20.25
2023-05-08T06:30:59.824Z,20.99
2023-05-08T06:36:22.077Z,19.77
2023-05-08T06:41:43.869Z,19.56
2023-05-08T06:47:12.505Z,19.23
2023-05-08T06:52:34.860Z,18.70
2023-05-08T06:57:56.748Z,20.61
2023-05-08T07:03:21.746Z,20.27
2023-05-08T07:08:43.676Z,21.22
2023-05-08T07:14:05.684Z,21.63
2023-05-08T07:19:27.692Z,17.99
2023-05-08T07:24:49.581Z,16.93
2023-05-08T07:30:12.662Z,15.33
2023-05-08T07:35:34.409Z,14.19
2023-05-08T07:41:00.184Z,14.28
2023-05-08T07:46:23.214Z,13.59
2023-05-08T07:51:45.351Z,14.40
2023-05-08T07:57:07.606Z,15.13
2023-05-08T08:02:29.682Z,14.30
2023-05-08T08:07:51.819Z,14.97
2023-05-08T08:13:14.121Z,16.77
2023-05-08T08:18:37.297Z,16.30
2023-05-08T08:24:00.233Z,13.50
2023-05-08T08:29:22.334Z,13.78
2023-05-08T08:34:44.180Z,12.04
2023-05-08T08:40:07.011Z,11.54
2023-05-08T08:45:31.711Z,15.29
2023-05-08T08:50:59.543Z,14.47
2023-05-08T08:56:24.532Z,13.40
2023-05-08T09:01:51.963Z,13.71
2023-05-08T09:07:16.435Z,13.60
2023-05-08T09:12:39.497Z,12.65
2023-05-08T09:18:04.760Z,13.19
2023-05-08T09:23:27.147Z,15.55
2023-05-08T09:29:14.549Z,13.83
2023-05-08T09:34:36.384Z,12.62
2023-05-08T09:40:22.177Z,12.19
2023-05-08T09:45:44.242Z,12.15
2023-05-08T09:51:08.961Z,11.83
2023-05-08T09:56:39.656Z,12.26
2023-05-08T10:02:11.482Z,13.03
2023-05-08T10:07:37.818Z,12.49
2023-05-08T10:13:00.128Z,12.36
2023-05-08T10:18:25.236Z,12.32
2023-05-08T10:23:49.940Z,12.49
2023-05-08T10:29:22.030Z,13.13
2023-05-08T10:34:47.608Z,12.44
2023-05-08T10:40:16.394Z,12.86
2023-05-08T10:45:39.390Z,12.32
2023-05-08T10:51:17.244Z,12.26
2023-05-08T10:56:39.871Z,13.05
2023-05-08T11:02:09.211Z,13.08
2023-05-08T11:08:15.749Z,11.89
2023-05-08T11:13:41.844Z,11.80
2023-05-08T11:19:24.211Z,12.17
2023-05-08T11:24:54.055Z,12.57
2023-05-08T11:30:35.393Z,13.40
2023-05-08T11:36:13.319Z,13.76
2023-05-08T11:41:35.624Z,13.75
2023-05-08T11:46:58.849Z,12.80
2023-05-08T11:52:23.560Z,12.35
2023-05-08T11:57:45.100Z,11.96
2023-05-08T12:03:08.431Z,11.51
2023-05-08T12:08:30.616Z,11.45
2023-05-08T12:13:54.259Z,11.63
2023-05-08T12:19:16.519Z,11.21
2023-05-08T12:24:40.056Z,11.70
2023-05-08T12:30:08.143Z,12.15
2023-05-08T12:35:30.841Z,12.02
2023-05-08T12:40:58.349Z,12.23
2023-05-08T12:46:22.771Z,11.87
2023-05-08T12:51:46.891Z,11.80
2023-05-08T12:57:17.280Z,11.54
2023-05-08T13:02:51.909Z,11.58
2023-05-08T13:08:14.401Z,11.53
2023-05-08T13:13:38.020Z,11.45
2023-05-08T13:19:00.330Z,10.85
2023-05-08T13:24:22.606Z,10.75
2023-05-08T13:29:44.662Z,10.28
2023-05-08T13:35:06.870Z,10.31
2023-05-08T13:40:28.950Z,10.47
2023-05-08T13:45:50.667Z,11.08
2023-05-08T13:51:12.506Z,11.24
2023-05-08T13:56:34.419Z,11.62
2023-05-08T14:01:56.452Z,11.36
2023-05-08T14:07:19.115Z,11.25
2023-05-08T14:12:41.218Z,11.35
2023-05-08T14:18:03.438Z,12.06
2023-05-08T14:23:25.474Z,12.01
2023-05-08T14:28:47.965Z,11.75
2023-05-08T14:34:09.933Z,12.20
2023-05-08T14:39:31.967Z,12.40
2023-05-08T14:44:54.173Z,12.80
2023-05-08T14:50:16.307Z,12.81
2023-05-08T14:55:38.900Z,12.98
2023-05-08T15:01:03.169Z,12.74
2023-05-08T15:06:29.322Z,12.88
2023-05-08T15:11:51.688Z,12.48
2023-05-08T15:17:13.657Z,12.47
2023-05-08T15:22:37.404Z,11.84
2023-05-08T15:28:00.954Z,11.52
2023-05-08T15:33:23.950Z,11.21
2023-05-08T15:38:51.773Z,10.63
2023-05-08T15:44:14.640Z,10.36
2023-05-08T15:49:36.447Z,9.89
2023-05-08T15:54:58.606Z,9.60
2023-05-08T16:00:27.280Z,9.47
2023-05-08T16:05:51.633Z,9.30
2023-05-08T16:11:13.880Z,9.29
2023-05-08T16:16:39.607Z,9.15
2023-05-08T16:22:01.796Z,9.00
2023-05-08T16:27:23.838Z,8.94
2023-05-08T16:32:49.040Z,8.68
2023-05-08T16:38:11.599Z,8.41
2023-05-08T16:43:33.609Z,8.24
2023-05-08T16:48:55.848Z,7.91
2023-05-08T16:54:17.533Z,7.25
2023-05-08T16:59:39.609Z,6.74
2023-05-08T17:05:01.637Z,6.54
2023-05-08T17:10:26.293Z,6.18
2023-05-08T17:15:48.562Z,5.99
2023-05-08T17:21:10.633Z,5.59
2023-05-08T17:26:34.066Z,5.27
2023-05-08T17:31:59.284Z,5.00
2023-05-08T17:37:21.528Z,4.72
2023-05-08T17:42:43.613Z,4.47
2023-05-08T17:48:06.257Z,4.18
2023-05-08T17:53:28.105Z,3.87
2023-05-08T17:58:54.128Z,3.93
2023-05-08T18:04:18.299Z,3.68
2023-05-08T18:09:40.200Z,3.45
2023-05-08T18:15:06.032Z,3.08
2023-05-08T18:20:27.743Z,2.71
2023-05-08T18:25:52.975Z,2.87
2023-05-08T18:31:16.929Z,2.83
2023-05-08T18:36:39.131Z,2.72
2023-05-08T18:42:01.134Z,2.76
2023-05-08T18:47:23.178Z,2.61
2023-05-08T18:52:45.157Z,2.28
2023-05-08T18:58:07.080Z,1.86
2023-05-08T19:03:29.242Z,1.83
2023-05-08T19:08:52.627Z,1.66
2023-05-08T19:14:14.916Z,1.55
2023-05-08T19:19:36.868Z,1.21
2023-05-08T19:24:59.191Z,1.02
2023-05-08T19:30:21.044Z,0.77
2023-05-08T19:35:43.702Z,0.88
2023-05-08T19:41:05.763Z,0.73
2023-05-08T19:46:28.308Z,0.58
2023-05-08T19:51:52.353Z,0.47
2023-05-08T19:57:14.989Z,0.29
2023-05-08T20:02:38.040Z,0.15
2023-05-08T20:08:00.233Z,0.22
2023-05-08T20:13:22.769Z,0.23
2023-05-08T20:18:47.254Z,0.02
2023-05-08T20:24:09.521Z,-0.17
2023-05-08T20:29:31.518Z,-0.12
2023-05-08T20:34:53.596Z,-0.30
2023-05-08T20:40:16.457Z,-0.34
2023-05-08T20:45:39.429Z,-0.42
2023-05-08T20:51:01.613Z,-0.36
2023-05-08T20:56:24.068Z,-0.41
2023-05-08T21:01:46.756Z,-0.55
2023-05-08T21:07:09.375Z,-0.61
2023-05-08T21:12:31.785Z,-0.56
2023-05-08T21:17:55.081Z,-0.66
2023-05-08T21:23:21.104Z,-0.77
2023-05-08T21:28:43.527Z,-0.83
2023-05-08T21:34:07.536Z,-1.10
2023-05-08T21:39:32.217Z,-1.15
2023-05-08T21:44:57.588Z,-1.13
2023-05-08T21:50:19.981Z,-1.11
2023-05-08T21:55:42.524Z,-1.14
2023-05-08T22:01:05.096Z,-1.17
2023-05-08T22:06:27.508Z,-1.31
2023-05-08T22:11:50.325Z,-1.33
2023-05-08T22:17:12.625Z,-1.46
2023-05-08T22:22:35.143Z,-1.49
2023-05-08T22:27:56.792Z,-1.69
2023-05-08T22:33:19.022Z,-1.57
2023-05-08T22:38:41.597Z,-1.59
2023-05-08T22:44:04.244Z,-1.69
2023-05-08T22:49:26.817Z,-1.79
2023-05-08T22:54:48.740Z,-1.74
2023-05-08T23:00:12.199Z,-1.97
